Time;durP1;ratioP1;P1;durP2;ratioP2;P2;SDS_P1;SDS_P2;PMS_P1;PMS_P2;Temp;Humidity;BMP_temperature;BMP_pressure;BME280_temperature;BME280_humidity;BME280_pressure;Samples;Min_cycle;Max_cycle;Signal;HPM_P1;HPM_P2
2023/04/16 00:00:31;;;;;;;7.30;5.83;;;10.70;99.90;;;;;;5049363;28;20200;-79
2023/04/16 00:02:57;;;;;;;9.80;4.47;;;10.70;99.90;;;;;;5049883;28;20177;-80
2023/04/16 00:05:22;;;;;;;9.63;5.53;;;10.70;99.90;;;;;;5050215;28;20187;-79
2023/04/16 00:07:50;;;;;;;9.80;5.20;;;10.80;99.90;;;;;;5031644;28;20196;-79
2023/04/16 00:10:16;;;;;;;8.98;4.68;;;10.70;99.90;;;;;;5049184;28;20193;-80
2023/04/16 00:12:42;;;;;;;6.97;4.17;;;10.70;99.90;;;;;;5051296;28;20165;-80
2023/04/16 00:15:08;;;;;;;8.53;4.67;;;10.70;99.90;;;;;;5054239;28;20583;-80
2023/04/16 00:17:34;;;;;;;6.43;4.10;;;10.80;99.90;;;;;;5053961;28;20579;-80
2023/04/16 00:19:59;;;;;;;9.07;4.37;;;10.80;99.90;;;;;;5048742;28;20202;-80
2023/04/16 00:22:25;;;;;;;6.53;4.73;;;10.80;99.90;;;;;;5034079;28;20584;-80
2023/04/16 00:24:51;;;;;;;9.90;5.63;;;10.70;99.90;;;;;;5033832;28;20556;-80
2023/04/16 00:27:18;;;;;;;7.30;4.67;;;10.70;99.90;;;;;;5033750;28;20181;-80
2023/04/16 00:29:44;;;;;;;8.38;4.60;;;10.70;99.90;;;;;;5048744;28;20204;-80
2023/04/16 00:32:09;;;;;;;8.53;5.13;;;10.70;99.90;;;;;;5032488;28;20197;-80
2023/04/16 00:34:35;;;;;;;10.90;5.57;;;10.80;99.90;;;;;;5015715;28;20232;-80
2023/04/16 00:37:01;;;;;;;9.07;5.63;;;10.70;99.90;;;;;;5032273;28;20174;-80
2023/04/16 00:39:26;;;;;;;9.60;4.97;;;10.70;99.90;;;;;;5033773;28;20201;-80
2023/04/16 00:41:52;;;;;;;9.43;4.80;;;10.70;99.90;;;;;;5048800;28;20537;-80
2023/04/16 00:44:18;;;;;;;11.27;6.33;;;10.70;99.90;;;;;;5016201;28;20260;-80
2023/04/16 00:46:44;;;;;;;12.83;7.10;;;10.70;99.90;;;;;;4998791;28;20178;-80
2023/04/16 00:49:10;;;;;;;7.60;5.82;;;10.70;99.90;;;;;;5033742;28;20280;-80
2023/04/16 00:51:36;;;;;;;9.75;6.10;;;10.80;99.90;;;;;;5039723;28;20209;-80
2023/04/16 00:54:02;;;;;;;10.80;6.47;;;10.80;99.90;;;;;;5051369;28;20594;-80
2023/04/16 00:56:29;;;;;;;10.20;5.10;;;10.70;99.90;;;;;;5051549;28;20579;-80
2023/04/16 00:58:55;;;;;;;7.80;5.40;;;10.70;99.90;;;;;;5052299;28;20692;-80
2023/04/16 01:01:24;;;;;;;5.95;4.45;;;10.70;99.90;;;;;;5049130;28;20504;-80
2023/04/16 01:03:50;;;;;;;12.15;6.22;;;10.80;99.90;;;;;;5014896;28;20177;-80
2023/04/16 01:06:17;;;;;;;9.03;6.67;;;10.80;99.90;;;;;;5029174;28;20650;-80
2023/04/16 01:08:43;;;;;;;7.07;5.95;;;10.80;99.90;;;;;;4995161;28;20237;-81
2023/04/16 01:11:13;;;;;;;10.15;5.88;;;10.80;99.90;;;;;;4999635;28;20244;-80
2023/04/16 01:13:39;;;;;;;9.45;5.60;;;10.80;99.90;;;;;;5009915;28;20259;-80
2023/04/16 01:16:10;;;;;;;10.05;5.55;;;10.80;99.90;;;;;;5019549;28;20169;-80
2023/04/16 01:18:37;;;;;;;7.90;5.38;;;10.80;99.90;;;;;;5014869;28;20985;-80
2023/04/16 01:21:03;;;;;;;9.32;6.15;;;10.80;99.90;;;;;;5031400;28;20177;-81
2023/04/16 01:23:29;;;;;;;10.57;6.60;;;10.80;99.90;;;;;;4998347;28;20173;-81
2023/04/16 01:25:55;;;;;;;10.27;6.63;;;10.80;99.90;;;;;;5031623;28;20170;-81
2023/04/16 01:28:21;;;;;;;12.43;6.70;;;10.80;99.90;;;;;;5032936;28;20665;-80
2023/04/16 01:30:47;;;;;;;8.52;4.82;;;10.80;99.90;;;;;;5023735;28;20584;-80
2023/04/16 01:33:42;;;;;;;11.30;6.00;;;10.80;99.90;;;;;;5012607;28;20210;-80
2023/04/16 01:36:10;;;;;;;9.35;6.45;;;10.80;99.90;;;;;;5014531;28;20252;-81
2023/04/16 01:38:36;;;;;;;11.93;6.23;;;10.80;99.90;;;;;;5031507;28;20622;-80
2023/04/16 01:41:01;;;;;;;8.27;5.87;;;10.80;99.90;;;;;;5014359;28;20209;-81
2023/04/16 01:43:28;;;;;;;10.85;6.55;;;10.80;99.90;;;;;;5032675;28;20260;-81
2023/04/16 01:46:10;;;;;;;14.10;5.80;;;10.80;99.90;;;;;;5030445;28;20261;-81
2023/04/16 01:48:35;;;;;;;11.88;6.75;;;10.80;99.90;;;;;;5014609;28;20277;-80
2023/04/16 01:51:01;;;;;;;11.73;6.53;;;10.80;99.90;;;;;;5030984;28;20764;-80
2023/04/16 01:53:27;;;;;;;10.97;7.73;;;10.80;99.90;;;;;;5031133;28;20626;-80
2023/04/16 01:55:53;;;;;;;12.00;6.90;;;10.80;99.90;;;;;;5030558;28;20744;-80
2023/04/16 01:58:18;;;;;;;9.17;6.77;;;10.70;99.90;;;;;;5031341;28;20193;-81
2023/04/16 02:00:44;;;;;;;11.70;5.43;;;10.70;99.90;;;;;;5015496;28;20178;-81
2023/04/16 02:03:10;;;;;;;13.17;6.93;;;10.70;99.90;;;;;;5032064;28;20618;-81
2023/04/16 02:05:35;;;;;;;10.60;6.23;;;10.70;99.90;;;;;;5014340;28;20586;-81
2023/04/16 02:08:01;;;;;;;10.23;7.00;;;10.70;99.90;;;;;;5013669;28;20205;-81
2023/04/16 02:10:29;;;;;;;6.95;6.15;;;10.70;99.90;;;;;;5031011;28;20231;-82
2023/04/16 02:12:55;;;;;;;9.35;6.82;;;10.70;99.90;;;;;;5029856;28;20196;-82
2023/04/16 02:15:22;;;;;;;10.87;7.60;;;10.70;99.90;;;;;;5030943;28;20215;-82
2023/04/16 02:17:53;;;;;;;7.93;5.90;;;10.70;99.90;;;;;;5046675;28;20283;-82
2023/04/16 02:20:22;;;;;;;10.77;7.30;;;10.70;99.90;;;;;;5034723;28;20170;-82
2023/04/16 02:22:55;;;;;;;12.38;6.50;;;10.70;99.90;;;;;;5038781;28;20178;-82
2023/04/16 02:25:23;;;;;;;9.10;6.40;;;10.80;99.90;;;;;;5015472;28;20237;-82
2023/04/16 02:27:50;;;;;;;10.95;7.45;;;10.70;99.90;;;;;;5030525;28;20256;-82
2023/04/16 02:30:24;;;;;;;10.73;8.13;;;10.80;99.90;;;;;;5030444;28;20166;-82
2023/04/16 02:32:51;;;;;;;16.58;7.22;;;10.80;99.90;;;;;;5013745;28;20654;-82
2023/04/16 02:35:18;;;;;;;9.90;6.10;;;10.80;99.90;;;;;;5029848;28;20263;-82
2023/04/16 02:37:44;;;;;;;9.18;5.90;;;10.80;99.90;;;;;;5030586;28;20224;-82
2023/04/16 02:40:10;;;;;;;13.97;5.50;;;10.80;99.90;;;;;;5031676;28;20641;-82
2023/04/16 02:42:36;;;;;;;9.95;6.40;;;10.80;99.90;;;;;;5030860;28;20539;-82
2023/04/16 02:45:01;;;;;;;12.03;5.97;;;10.80;99.90;;;;;;5013898;28;20174;-82
2023/04/16 02:47:27;;;;;;;9.53;7.10;;;10.80;99.90;;;;;;5013982;28;20173;-82
2023/04/16 02:49:53;;;;;;;11.90;7.13;;;10.80;99.90;;;;;;5030136;28;20711;-82
2023/04/16 02:52:19;;;;;;;11.83;7.50;;;10.80;99.90;;;;;;5029864;28;20213;-81
2023/04/16 02:54:44;;;;;;;14.60;5.93;;;10.80;99.90;;;;;;5031549;28;20170;-81
2023/04/16 02:57:10;;;;;;;12.30;7.10;;;10.80;99.90;;;;;;5029451;28;21072;-81
2023/04/16 02:59:36;;;;;;;11.73;6.73;;;10.80;99.90;;;;;;5016572;23;20310;-75
2023/04/16 03:02:02;;;;;;;13.37;8.00;;;10.80;99.90;;;;;;4988774;28;20183;-75
2023/04/16 03:04:27;;;;;;;8.97;6.83;;;10.80;99.90;;;;;;4974904;28;20666;-76
2023/04/16 03:06:53;;;;;;;13.23;6.97;;;10.80;99.90;;;;;;4974454;28;20644;-77
2023/04/16 03:09:19;;;;;;;9.10;7.30;;;10.80;99.90;;;;;;4971462;28;20204;-77
2023/04/16 03:11:45;;;;;;;10.80;7.10;;;10.80;99.90;;;;;;4971018;28;20217;-76
2023/04/16 03:14:10;;;;;;;11.73;7.27;;;10.80;99.90;;;;;;4971723;28;20614;-77
2023/04/16 03:16:36;;;;;;;14.53;8.27;;;10.80;99.90;;;;;;4972594;28;20270;-77
2023/04/16 03:19:02;;;;;;;11.93;6.10;;;10.90;99.90;;;;;;4955377;28;20571;-77
2023/04/16 03:21:28;;;;;;;16.10;9.33;;;10.90;99.90;;;;;;4974996;28;20179;-76
2023/04/16 03:23:54;;;;;;;14.83;8.30;;;10.90;99.90;;;;;;4972735;28;20718;-77
2023/04/16 03:26:21;;;;;;;14.77;8.93;;;10.90;99.90;;;;;;4971432;28;20652;-76
2023/04/16 03:28:47;;;;;;;15.07;8.18;;;10.90;99.90;;;;;;4971056;28;20195;-76
2023/04/16 03:31:13;;;;;;;10.80;7.27;;;10.80;99.90;;;;;;4971017;28;20683;-75
2023/04/16 03:33:39;;;;;;;11.17;8.07;;;10.80;99.90;;;;;;4987168;28;20179;-75
2023/04/16 03:36:05;;;;;;;13.20;8.30;;;10.80;99.90;;;;;;4971147;28;20207;-75
2023/04/16 03:38:31;;;;;;;14.75;9.30;;;10.80;99.90;;;;;;4954666;28;20645;-75
2023/04/16 03:40:58;;;;;;;13.88;8.65;;;10.80;99.90;;;;;;4955248;28;20570;-77
2023/04/16 03:43:24;;;;;;;13.32;8.02;;;10.80;99.90;;;;;;4955136;28;20706;-76
2023/04/16 03:45:50;;;;;;;11.77;8.23;;;10.80;99.90;;;;;;4970714;28;20179;-76
2023/04/16 03:48:18;;;;;;;13.63;9.45;;;10.80;99.90;;;;;;4975388;28;20184;-76
2023/04/16 03:50:46;;;;;;;14.73;8.20;;;10.80;99.90;;;;;;4958534;28;20247;-77
2023/04/16 03:53:13;;;;;;;13.43;8.38;;;10.80;99.90;;;;;;4959038;28;21138;-76
2023/04/16 03:55:42;;;;;;;16.85;8.65;;;10.90;99.90;;;;;;4958555;28;20180;-77
2023/04/16 03:58:09;;;;;;;11.20;8.35;;;10.80;99.90;;;;;;4978719;28;20620;-76
2023/04/16 04:00:35;;;;;;;12.30;8.70;;;10.90;99.90;;;;;;4958552;28;20254;-76
2023/04/16 04:03:10;;;;;;;15.43;8.60;;;10.90;99.90;;;;;;4958788;28;20181;-76
2023/04/16 04:05:40;;;;;;;15.13;8.35;;;10.80;99.90;;;;;;4974195;28;20194;-76
2023/04/16 04:08:08;;;;;;;12.98;9.50;;;10.80;99.90;;;;;;4958678;28;20215;-76
2023/04/16 04:10:34;;;;;;;14.48;8.75;;;10.80;99.90;;;;;;4958708;28;20226;-76
2023/04/16 04:13:03;;;;;;;9.85;8.00;;;10.80;99.90;;;;;;4957997;28;20508;-76
2023/04/16 04:15:29;;;;;;;15.13;9.15;;;10.80;99.90;;;;;;4974850;28;20222;-76
2023/04/16 04:17:56;;;;;;;14.90;10.85;;;10.80;99.90;;;;;;4958300;28;20192;-76
2023/04/16 04:20:22;;;;;;;15.15;10.45;;;10.80;99.90;;;;;;4958525;28;20704;-76
2023/04/16 04:22:50;;;;;;;15.30;10.50;;;10.80;99.90;;;;;;4974080;28;20172;-76
2023/04/16 04:25:16;;;;;;;12.63;8.73;;;10.70;99.90;;;;;;4974897;28;20171;-77
2023/04/16 04:27:42;;;;;;;15.53;9.40;;;10.80;99.90;;;;;;4974047;28;20643;-77
2023/04/16 04:30:09;;;;;;;12.63;9.63;;;10.80;99.90;;;;;;4974747;28;20619;-76
2023/04/16 04:32:35;;;;;;;16.80;10.57;;;10.80;99.90;;;;;;4990148;28;20212;-75
2023/04/16 04:35:02;;;;;;;14.37;10.40;;;10.80;99.90;;;;;;4978741;28;20727;-76
2023/04/16 04:37:28;;;;;;;13.98;9.90;;;10.80;99.90;;;;;;4974302;28;20590;-75
2023/04/16 04:39:54;;;;;;;13.73;9.77;;;10.80;99.90;;;;;;4974000;28;20551;-76
2023/04/16 04:42:20;;;;;;;22.53;11.20;;;10.80;99.90;;;;;;4974400;28;20579;-76
2023/04/16 04:44:46;;;;;;;12.75;9.48;;;10.80;99.90;;;;;;4957852;28;20266;-76
2023/04/16 04:47:13;;;;;;;17.97;10.70;;;10.80;99.90;;;;;;4974214;28;20263;-75
2023/04/16 04:49:39;;;;;;;16.50;11.07;;;10.80;99.90;;;;;;4973899;28;21395;-76
2023/04/16 04:52:05;;;;;;;15.47;11.20;;;10.80;99.90;;;;;;4957576;28;20199;-75
2023/04/16 04:54:31;;;;;;;22.27;13.63;;;10.80;99.90;;;;;;4973857;28;21194;-75
2023/04/16 04:56:58;;;;;;;20.15;14.15;;;10.80;99.90;;;;;;4974049;28;20825;-75
2023/04/16 04:59:24;;;;;;;18.65;13.70;;;10.80;99.90;;;;;;4957245;28;20222;-75
2023/04/16 05:01:50;;;;;;;18.90;13.23;;;10.80;99.90;;;;;;4957863;28;20175;-76
2023/04/16 05:04:16;;;;;;;19.73;13.00;;;10.80;99.90;;;;;;4979372;28;20283;-75
2023/04/16 05:06:42;;;;;;;25.95;14.02;;;10.90;99.90;;;;;;4973667;28;20188;-76
2023/04/16 05:09:10;;;;;;;17.92;11.20;;;10.90;99.90;;;;;;4973691;28;20200;-77
2023/04/16 05:11:40;;;;;;;18.77;13.32;;;10.90;99.90;;;;;;4975678;28;20282;-76
2023/04/16 05:14:06;;;;;;;18.35;12.63;;;10.90;99.90;;;;;;4958084;28;20172;-76
2023/04/16 05:16:35;;;;;;;18.35;12.35;;;10.90;99.90;;;;;;4973723;28;20180;-76
2023/04/16 05:19:01;;;;;;;19.70;13.85;;;10.90;99.90;;;;;;4958536;28;20211;-76
2023/04/16 05:21:27;;;;;;;21.10;12.13;;;10.90;99.90;;;;;;4963395;28;20184;-76
2023/04/16 05:23:53;;;;;;;17.57;11.90;;;10.90;99.90;;;;;;4974469;28;20182;-76
2023/04/16 05:26:18;;;;;;;23.83;13.10;;;11.00;99.90;;;;;;4973450;28;20183;-76
2023/04/16 05:28:44;;;;;;;19.80;12.43;;;11.00;99.90;;;;;;4973602;28;20831;-76
2023/04/16 05:31:10;;;;;;;19.07;11.17;;;11.00;99.90;;;;;;4973053;28;20590;-77
2023/04/16 05:33:36;;;;;;;18.10;12.23;;;11.00;99.90;;;;;;4973036;28;20172;-77
2023/04/16 05:36:01;;;;;;;14.57;9.90;;;11.00;99.90;;;;;;4973475;28;20258;-76
2023/04/16 05:38:27;;;;;;;17.73;12.07;;;11.00;99.90;;;;;;4973226;28;20267;-76
2023/04/16 05:40:53;;;;;;;14.27;9.73;;;11.00;99.90;;;;;;4973346;28;20587;-77
2023/04/16 05:43:19;;;;;;;18.57;11.40;;;11.00;99.90;;;;;;4973400;28;20883;-76
2023/04/16 05:45:44;;;;;;;17.63;10.87;;;11.00;99.90;;;;;;4981348;28;20183;-76
2023/04/16 05:48:11;;;;;;;15.23;11.03;;;11.00;99.90;;;;;;4976843;28;20183;-76
2023/04/16 05:50:37;;;;;;;15.70;9.95;;;11.10;99.90;;;;;;4974423;28;20286;-76
2023/04/16 05:53:06;;;;;;;12.50;9.50;;;11.10;99.90;;;;;;4974221;28;20266;-76
2023/04/16 05:55:32;;;;;;;15.15;10.02;;;11.10;99.90;;;;;;4973623;28;20638;-78
2023/04/16 05:57:58;;;;;;;13.00;9.18;;;11.10;99.90;;;;;;4974167;28;20175;-76
2023/04/16 06:00:24;;;;;;;15.90;10.67;;;11.10;99.90;;;;;;4976845;28;20222;-76
2023/04/16 06:02:50;;;;;;;17.35;9.80;;;11.10;99.90;;;;;;4977256;28;20179;-76
2023/04/16 06:05:16;;;;;;;17.60;11.27;;;11.20;99.90;;;;;;4991554;28;20198;-76
2023/04/16 06:07:41;;;;;;;14.60;10.30;;;11.20;99.90;;;;;;4975344;28;20255;-76
2023/04/16 06:10:07;;;;;;;17.63;11.90;;;11.20;99.90;;;;;;4975649;28;20184;-76
2023/04/16 06:12:33;;;;;;;15.40;10.13;;;11.20;99.90;;;;;;4991561;28;20208;-76
2023/04/16 06:14:59;;;;;;;20.80;11.53;;;11.20;99.90;;;;;;4975179;28;20172;-76
2023/04/16 06:17:25;;;;;;;16.23;12.00;;;11.20;99.90;;;;;;4972915;28;20234;-76
2023/04/16 06:19:51;;;;;;;13.80;9.27;;;11.20;99.90;;;;;;4974711;28;20195;-76
2023/04/16 06:22:17;;;;;;;17.13;11.50;;;11.20;99.90;;;;;;4973581;28;20575;-76
2023/04/16 06:24:43;;;;;;;14.40;10.00;;;11.20;99.90;;;;;;4973685;28;20702;-76
2023/04/16 06:27:09;;;;;;;12.85;8.77;;;11.20;99.90;;;;;;4977098;28;20187;-76
2023/04/16 06:29:35;;;;;;;19.90;12.40;;;11.20;99.90;;;;;;4973092;28;20678;-76
2023/04/16 06:32:02;;;;;;;15.40;10.40;;;11.20;99.90;;;;;;4988906;28;20650;-76
2023/04/16 06:34:28;;;;;;;14.48;11.20;;;11.20;99.90;;;;;;4972533;28;20582;-76
2023/04/16 06:36:55;;;;;;;10.48;9.13;;;11.20;99.90;;;;;;4972095;28;20175;-76
2023/04/16 06:39:21;;;;;;;16.85;10.65;;;11.20;99.90;;;;;;4972378;28;20192;-76
2023/04/16 06:41:47;;;;;;;11.37;8.60;;;11.20;99.90;;;;;;4973231;28;20632;-76
2023/04/16 06:44:13;;;;;;;9.95;8.10;;;11.20;99.90;;;;;;4973498;28;20186;-78
2023/04/16 06:46:39;;;;;;;10.88;8.90;;;11.20;99.90;;;;;;4973175;28;20878;-78
2023/04/16 06:49:06;;;;;;;10.23;8.65;;;11.30;99.90;;;;;;4988879;28;20253;-78
2023/04/16 06:51:32;;;;;;;10.45;8.40;;;11.30;99.90;;;;;;4990780;28;20591;-78
2023/04/16 06:53:58;;;;;;;11.48;8.30;;;11.30;99.90;;;;;;4991125;28;20202;-78
2023/04/16 06:56:24;;;;;;;12.30;8.67;;;11.30;99.90;;;;;;4974697;28;20572;-78
2023/04/16 06:58:50;;;;;;;10.83;7.83;;;11.30;99.90;;;;;;4983543;28;20623;-78
2023/04/16 07:01:16;;;;;;;10.23;8.45;;;11.30;99.90;;;;;;4971602;28;21436;-78
2023/04/16 07:03:42;;;;;;;10.70;7.65;;;11.30;99.90;;;;;;4973328;28;20163;-77
2023/04/16 07:06:08;;;;;;;12.87;8.10;;;11.30;99.90;;;;;;4971365;28;20583;-77
2023/04/16 07:08:34;;;;;;;7.97;7.10;;;11.30;99.90;;;;;;4971424;28;20605;-78
2023/04/16 07:11:00;;;;;;;10.93;8.40;;;11.30;99.90;;;;;;4972132;28;20207;-78
2023/04/16 07:13:26;;;;;;;10.48;8.23;;;11.30;99.90;;;;;;4972558;28;20620;-78
2023/04/16 07:15:53;;;;;;;10.97;8.50;;;11.30;99.90;;;;;;4972081;28;20178;-78
2023/04/16 07:18:18;;;;;;;10.65;7.35;;;11.30;99.90;;;;;;4972928;28;20214;-78
2023/04/16 07:20:44;;;;;;;10.70;8.27;;;11.30;99.90;;;;;;4971439;28;20223;-78
2023/04/16 07:23:10;;;;;;;9.47;7.03;;;11.30;99.90;;;;;;4975186;28;20175;-79
2023/04/16 07:25:36;;;;;;;11.60;7.53;;;11.30;99.90;;;;;;4973457;28;20586;-78
2023/04/16 07:28:02;;;;;;;7.80;7.00;;;11.30;99.90;;;;;;4983587;28;20206;-77
2023/04/16 07:30:32;;;;;;;13.07;8.10;;;11.40;99.90;;;;;;4980058;28;20230;-76
2023/04/16 07:33:00;;;;;;;11.23;8.77;;;11.40;99.90;;;;;;4990363;28;20170;-77
2023/04/16 07:35:27;;;;;;;9.02;6.60;;;11.40;99.90;;;;;;4986869;28;20179;-77
2023/04/16 07:37:52;;;;;;;9.17;7.03;;;11.40;99.90;;;;;;4970659;28;20172;-75
2023/04/16 07:40:18;;;;;;;13.63;9.50;;;11.40;99.90;;;;;;4974228;28;20607;-77
2023/04/16 07:42:44;;;;;;;14.70;8.57;;;11.40;99.90;;;;;;4970568;28;20180;-77
2023/04/16 07:45:10;;;;;;;14.47;11.27;;;11.40;99.90;;;;;;4971098;28;20592;-77
2023/04/16 07:47:36;;;;;;;14.47;10.47;;;11.40;99.90;;;;;;4971778;28;20516;-77
2023/04/16 07:50:01;;;;;;;15.40;12.37;;;11.50;99.90;;;;;;4970622;28;20709;-77
2023/04/16 07:52:27;;;;;;;17.43;12.87;;;11.50;99.90;;;;;;4970338;28;20215;-77
2023/04/16 07:54:53;;;;;;;18.43;13.63;;;11.50;99.90;;;;;;4970912;28;20175;-76
2023/04/16 07:57:18;;;;;;;17.53;12.70;;;11.50;99.90;;;;;;4970635;28;20199;-76
2023/04/16 07:59:44;;;;;;;25.13;15.77;;;11.60;99.90;;;;;;4967452;28;20884;-77
2023/04/16 08:02:13;;;;;;;18.73;15.60;;;11.60;99.90;;;;;;4972165;28;20554;-76
2023/04/16 08:04:40;;;;;;;22.98;15.55;;;11.70;99.90;;;;;;4954644;28;20214;-77
2023/04/16 08:07:06;;;;;;;20.55;16.48;;;11.70;99.90;;;;;;4970777;28;20913;-78
2023/04/16 08:09:32;;;;;;;18.47;15.60;;;11.80;99.90;;;;;;4954492;28;20203;-77
2023/04/16 08:11:59;;;;;;;20.23;15.47;;;11.90;99.90;;;;;;4971913;28;20206;-76
2023/04/16 08:14:25;;;;;;;19.85;14.73;;;12.10;99.90;;;;;;4970471;28;20179;-76
2023/04/16 08:16:51;;;;;;;17.40;14.50;;;12.40;99.90;;;;;;4970887;28;20176;-75
2023/04/16 08:19:16;;;;;;;19.10;14.70;;;12.60;99.90;;;;;;4972379;28;20251;-76
2023/04/16 08:21:42;;;;;;;28.93;20.83;;;12.70;99.90;;;;;;4971043;28;20180;-76
2023/04/16 08:24:08;;;;;;;30.33;21.77;;;12.90;99.90;;;;;;4971564;28;20179;-76
2023/04/16 08:26:34;;;;;;;27.67;20.23;;;13.00;99.90;;;;;;4969713;28;20657;-76
2023/04/16 08:28:59;;;;;;;30.50;23.10;;;13.00;99.90;;;;;;4969888;28;20295;-76
2023/04/16 08:31:26;;;;;;;25.70;20.10;;;13.10;99.90;;;;;;4969453;28;20200;-75
2023/04/16 08:33:52;;;;;;;21.63;19.20;;;13.10;99.90;;;;;;4956630;28;20222;-77
2023/04/16 08:36:18;;;;;;;24.93;18.63;;;13.10;99.90;;;;;;4974967;28;20216;-77
2023/04/16 08:38:43;;;;;;;19.97;16.60;;;13.20;99.90;;;;;;4975460;28;20685;-77
2023/04/16 08:41:12;;;;;;;26.40;18.40;;;13.30;99.90;;;;;;4974746;28;20171;-76
2023/04/16 08:43:43;;;;;;;21.58;16.92;;;13.30;99.90;;;;;;4973883;28;20628;-76
2023/04/16 08:46:10;;;;;;;21.30;16.77;;;13.30;99.90;;;;;;4973657;28;20547;-77
2023/04/16 08:48:37;;;;;;;21.52;17.48;;;13.40;99.90;;;;;;4974065;28;20187;-77
2023/04/16 08:51:09;;;;;;;21.38;16.48;;;13.30;99.90;;;;;;4973303;28;20238;-76
2023/04/16 08:53:46;;;;;;;23.45;17.70;;;13.30;99.90;;;;;;4973542;28;20207;-76
2023/04/16 08:56:13;;;;;;;23.00;16.17;;;13.30;99.90;;;;;;4965441;28;20179;-76
2023/04/16 08:58:40;;;;;;;19.67;15.88;;;13.30;99.90;;;;;;4973195;28;20198;-76
2023/04/16 09:01:08;;;;;;;17.67;14.93;;;13.30;99.90;;;;;;4957632;28;20167;-77
2023/04/16 09:03:34;;;;;;;15.23;13.35;;;13.30;99.90;;;;;;4974302;28;20594;-77
2023/04/16 09:06:03;;;;;;;20.90;16.40;;;13.40;99.90;;;;;;4973531;28;20179;-77
2023/04/16 09:08:29;;;;;;;15.63;13.20;;;13.50;99.90;;;;;;4989306;28;20644;-76
2023/04/16 09:10:56;;;;;;;18.27;14.77;;;13.70;99.90;;;;;;4989480;28;20572;-76
2023/04/16 09:13:22;;;;;;;24.60;19.33;;;13.80;99.90;;;;;;4956191;28;20188;-76
2023/04/16 09:15:52;;;;;;;18.97;16.60;;;13.90;99.90;;;;;;4974296;28;20640;-76
2023/04/16 09:18:20;;;;;;;25.55;17.35;;;14.00;99.90;;;;;;4974278;28;20595;-76
2023/04/16 09:20:47;;;;;;;20.15;16.40;;;14.10;99.90;;;;;;4973117;28;20172;-76
2023/04/16 09:23:13;;;;;;;21.03;18.00;;;14.10;99.90;;;;;;4974565;28;20175;-76
2023/04/16 09:25:39;;;;;;;17.50;14.53;;;14.10;99.90;;;;;;4973870;28;20572;-76
2023/04/16 09:28:05;;;;;;;22.07;17.57;;;14.10;99.90;;;;;;4974489;28;20175;-75
2023/04/16 09:30:30;;;;;;;22.87;19.50;;;14.10;99.90;;;;;;4956283;28;20343;-75
2023/04/16 09:33:21;;;;;;;17.93;16.07;;;14.20;99.90;;;;;;4974448;28;21243;-76
2023/04/16 09:35:48;;;;;;;20.20;16.83;;;14.30;99.90;;;;;;4956581;28;20196;-76
2023/04/16 09:38:15;;;;;;;21.60;19.10;;;14.40;99.90;;;;;;4974534;28;20563;-76
2023/04/16 09:40:41;;;;;;;27.10;20.97;;;14.50;99.90;;;;;;4956521;28;20615;-75
2023/04/16 09:43:11;;;;;;;23.50;20.87;;;14.50;99.90;;;;;;4956971;28;20678;-76
2023/04/16 09:45:50;;;;;;;22.60;20.30;;;14.60;99.90;;;;;;4972632;28;20575;-77
2023/04/16 09:48:31;;;;;;;24.57;21.40;;;14.60;99.90;;;;;;4974419;28;20579;-76
2023/04/16 09:51:00;;;;;;;19.90;17.80;;;14.70;99.90;;;;;;4955685;28;20719;-77
2023/04/16 09:53:28;;;;;;;22.70;19.20;;;14.70;99.90;;;;;;4988901;28;20176;-77
2023/04/16 09:55:57;;;;;;;25.57;21.47;;;14.70;99.90;;;;;;4972710;28;20679;-77
2023/04/16 09:58:23;;;;;;;21.70;18.50;;;14.70;99.90;;;;;;4972541;28;20682;-77
2023/04/16 10:00:54;;;;;;;20.47;18.27;;;14.60;99.90;;;;;;4974546;28;20678;-77
2023/04/16 10:03:29;;;;;;;23.70;21.17;;;14.60;99.90;;;;;;4972149;28;20606;-77
2023/04/16 10:05:55;;;;;;;27.20;21.47;;;14.60;99.90;;;;;;4972399;28;20189;-77
2023/04/16 10:08:23;;;;;;;23.33;20.87;;;14.60;99.90;;;;;;4972181;28;20968;-77
2023/04/16 10:10:48;;;;;;;21.87;19.77;;;14.60;99.90;;;;;;4973341;28;20587;-76
2023/04/16 10:13:16;;;;;;;19.23;16.40;;;14.70;99.90;;;;;;4971834;28;20585;-77
2023/04/16 10:15:42;;;;;;;20.40;17.20;;;14.70;99.90;;;;;;4973417;28;20184;-76
2023/04/16 10:18:08;;;;;;;20.17;18.07;;;14.80;99.90;;;;;;4985174;28;21168;-76
2023/04/16 10:20:35;;;;;;;19.73;16.50;;;14.90;99.90;;;;;;4985225;28;20618;-77
2023/04/16 10:23:01;;;;;;;21.30;17.37;;;14.90;99.90;;;;;;4971912;28;21092;-77
2023/04/16 10:25:28;;;;;;;18.80;16.80;;;15.00;99.90;;;;;;4978409;28;20578;-76
2023/04/16 10:27:55;;;;;;;20.50;17.20;;;15.00;99.90;;;;;;4959038;28;21156;-77
2023/04/16 10:30:22;;;;;;;17.43;15.57;;;15.10;99.90;;;;;;4992149;28;20606;-76
2023/04/16 10:32:48;;;;;;;24.10;16.50;;;15.10;99.90;;;;;;4992665;28;20633;-77
2023/04/16 10:35:18;;;;;;;21.73;18.57;;;15.20;99.90;;;;;;4974617;28;20606;-76
2023/04/16 10:37:44;;;;;;;20.20;17.50;;;15.20;99.90;;;;;;4977447;28;20587;-76
2023/04/16 10:40:24;;;;;;;24.33;18.27;;;15.10;99.90;;;;;;4954152;28;20769;-76
2023/04/16 10:43:00;;;;;;;17.67;15.43;;;15.10;99.90;;;;;;4971740;28;20594;-76
2023/04/16 10:45:36;;;;;;;18.53;16.63;;;15.10;99.90;;;;;;4971391;28;20586;-75
2023/04/16 10:48:09;;;;;;;17.20;15.40;;;15.10;99.90;;;;;;4971075;28;20623;-74
2023/04/16 10:50:36;;;;;;;16.73;15.03;;;15.10;99.90;;;;;;4969417;28;20623;-74
2023/04/16 10:53:19;;;;;;;21.83;19.63;;;15.10;99.90;;;;;;4986799;28;20611;-74
2023/04/16 10:56:07;;;;;;;19.53;17.50;;;15.10;99.90;;;;;;4969879;28;20171;-75
2023/04/16 10:58:35;;;;;;;17.10;15.40;;;15.20;99.90;;;;;;4971412;28;20583;-74
2023/04/16 11:01:06;;;;;;;17.77;16.07;;;15.30;99.90;;;;;;4970938;28;20619;-74
2023/04/16 11:03:32;;;;;;;18.83;16.70;;;15.30;99.90;;;;;;4971567;28;20587;-75
2023/04/16 11:06:16;;;;;;;19.27;17.03;;;15.40;99.90;;;;;;4975900;28;21242;-74
2023/04/16 11:08:45;;;;;;;19.50;16.97;;;15.50;99.90;;;;;;4982588;28;20614;-75
2023/04/16 11:11:11;;;;;;;19.70;17.63;;;15.70;99.90;;;;;;4971381;28;20647;-74
2023/04/16 11:13:37;;;;;;;21.80;18.10;;;15.80;99.90;;;;;;4970767;28;20614;-75
2023/04/16 11:16:06;;;;;;;16.33;14.63;;;15.90;99.90;;;;;;5012002;23;20692;-75
2023/04/16 11:18:31;;;;;;;17.00;15.17;;;15.90;99.90;;;;;;5022141;28;20576;-75
2023/04/16 11:20:57;;;;;;;18.57;15.43;;;16.00;99.90;;;;;;5019349;28;21148;-75
2023/04/16 11:23:23;;;;;;;19.87;17.73;;;16.10;99.90;;;;;;5010878;28;20181;-76
2023/04/16 11:25:55;;;;;;;18.57;16.77;;;16.20;99.90;;;;;;5009854;28;20746;-74
2023/04/16 11:28:31;;;;;;;18.93;15.70;;;16.20;99.90;;;;;;5010963;28;20182;-74
2023/04/16 11:30:57;;;;;;;18.33;15.30;;;16.30;99.90;;;;;;5010128;28;20974;-76
2023/04/16 11:33:24;;;;;;;17.23;15.63;;;16.50;99.90;;;;;;5009881;28;20577;-74
2023/04/16 11:35:57;;;;;;;17.20;15.50;;;16.70;99.90;;;;;;5009308;28;20194;-74
2023/04/16 11:38:33;;;;;;;20.77;18.63;;;16.90;99.90;;;;;;5010678;28;20604;-75
2023/04/16 11:40:59;;;;;;;18.00;16.20;;;17.00;99.90;;;;;;5009505;28;21219;-75
2023/04/16 11:43:25;;;;;;;18.13;16.37;;;17.10;99.90;;;;;;5015157;28;20735;-75
2023/04/16 11:45:56;;;;;;;19.77;17.77;;;17.20;99.90;;;;;;5021894;28;20200;-75
2023/04/16 11:48:22;;;;;;;21.83;19.53;;;17.40;99.90;;;;;;5029346;28;20579;-76
2023/04/16 11:50:55;;;;;;;19.60;17.47;;;17.40;99.90;;;;;;5028964;28;20576;-75
2023/04/16 11:53:20;;;;;;;17.03;15.23;;;17.40;99.90;;;;;;5012764;28;20626;-75
2023/04/16 11:55:46;;;;;;;19.83;17.83;;;17.50;99.90;;;;;;5010052;28;20604;-75
2023/04/16 11:58:15;;;;;;;19.77;17.77;;;17.50;99.90;;;;;;5009516;28;20681;-76
2023/04/16 12:00:41;;;;;;;19.83;17.93;;;17.50;99.90;;;;;;5011156;28;20602;-76
2023/04/16 12:03:07;;;;;;;20.27;18.00;;;17.50;99.90;;;;;;5010432;28;20574;-76
2023/04/16 12:05:34;;;;;;;22.77;18.90;;;17.50;99.90;;;;;;5009334;28;20668;-75
2023/04/16 12:08:02;;;;;;;23.50;21.10;;;17.40;99.90;;;;;;5011200;28;20182;-75
2023/04/16 12:10:28;;;;;;;21.63;19.43;;;17.40;99.90;;;;;;5014694;28;20573;-76
2023/04/16 12:13:11;;;;;;;22.50;20.40;;;17.30;99.90;;;;;;5012997;28;20647;-76
2023/04/16 12:15:44;;;;;;;19.00;17.10;;;17.20;99.90;;;;;;5013119;28;20616;-75
2023/04/16 12:18:10;;;;;;;19.13;17.43;;;17.20;99.90;;;;;;4996616;28;20964;-76
2023/04/16 12:20:42;;;;;;;22.93;20.63;;;17.10;99.90;;;;;;5014443;28;20588;-75
2023/04/16 12:23:10;;;;;;;21.43;19.13;;;17.10;99.90;;;;;;5013578;28;20265;-76
2023/04/16 12:25:36;;;;;;;17.67;15.90;;;17.10;99.90;;;;;;5012782;28;20609;-75
2023/04/16 12:28:02;;;;;;;18.50;16.73;;;17.20;99.90;;;;;;5022205;28;20600;-75
2023/04/16 12:30:29;;;;;;;19.33;17.33;;;17.30;99.90;;;;;;5026927;28;21550;-75
2023/04/16 12:33:18;;;;;;;20.67;18.57;;;17.30;99.90;;;;;;5019347;28;21237;-75